TAF KMGM
AMD KMGM 082025Z 0820/0918 32006KT P6SM SCT020 FM090300 00000KT P6SM FEW250 FM090900 00000KT 4SM BR BKN005 FM091400 VRB04KT P6SM BKN015=
METAR KMGM
WC KMGM
WS KMGM
WV KMGM